sensor_id;sensor_type;location;lat;lon;timestamp;temperature;humidity
44833;DHT22;30569;51.252;9.830;2023-07-31T00:01:39;17.50;99.90
44833;DHT22;30569;51.252;9.830;2023-07-31T00:04:05;17.60;99.90
44833;DHT22;30569;51.252;9.830;2023-07-31T00:06:30;17.50;99.90
44833;DHT22;30569;51.252;9.830;2023-07-31T00:08:56;17.60;99.90
44833;DHT22;30569;51.252;9.830;2023-07-31T00:11:22;17.70;99.90
44833;DHT22;30569;51.252;9.830;2023-07-31T00:13:47;17.70;99.90
44833;DHT22;30569;51.252;9.830;2023-07-31T00:16:13;17.60;99.90
44833;DHT22;30569;51.252;9.830;2023-07-31T00:18:38;17.60;99.90
44833;DHT22;30569;51.252;9.830;2023-07-31T00:21:04;17.50;99.90
44833;DHT22;30569;51.252;9.830;2023-07-31T00:23:30;17.50;99.90
44833;DHT22;30569;51.252;9.830;2023-07-31T00:25:55;17.60;99.90
44833;DHT22;30569;51.252;9.830;2023-07-31T00:28:21;17.70;99.90
44833;DHT22;30569;51.252;9.830;2023-07-31T00:30:46;17.70;99.90
44833;DHT22;30569;51.252;9.830;2023-07-31T00:33:12;17.70;99.90
44833;DHT22;30569;51.252;9.830;2023-07-31T00:35:37;17.70;99.90
44833;DHT22;30569;51.252;9.830;2023-07-31T00:38:03;17.60;99.90
44833;DHT22;30569;51.252;9.830;2023-07-31T00:40:28;17.60;99.90
44833;DHT22;30569;51.252;9.830;2023-07-31T00:42:54;17.70;99.90
44833;DHT22;30569;51.252;9.830;2023-07-31T00:45:19;17.70;99.90
44833;DHT22;30569;51.252;9.830;2023-07-31T00:47:48;17.60;99.90
44833;DHT22;30569;51.252;9.830;2023-07-31T00:50:14;17.60;99.90
44833;DHT22;30569;51.252;9.830;2023-07-31T00:52:40;17.60;99.90
44833;DHT22;30569;51.252;9.830;2023-07-31T00:55:06;17.50;99.90
44833;DHT22;30569;51.252;9.830;2023-07-31T00:57:33;17.60;99.90
44833;DHT22;30569;51.252;9.830;2023-07-31T01:00:00;17.50;99.90
44833;DHT22;30569;51.252;9.830;2023-07-31T01:02:25;17.60;99.90
44833;DHT22;30569;51.252;9.830;2023-07-31T01:04:51;17.80;99.90
44833;DHT22;30569;51.252;9.830;2023-07-31T01:07:26;17.80;99.90
44833;DHT22;30569;51.252;9.830;2023-07-31T01:12:31;17.60;99.90
44833;DHT22;30569;51.252;9.830;2023-07-31T01:15:06;17.70;99.90
44833;DHT22;30569;51.252;9.830;2023-07-31T01:17:32;17.70;99.90
44833;DHT22;30569;51.252;9.830;2023-07-31T01:20:02;17.70;99.90
44833;DHT22;30569;51.252;9.830;2023-07-31T01:27:59;17.80;99.90
44833;DHT22;30569;51.252;9.830;2023-07-31T01:30:30;17.80;99.90
44833;DHT22;30569;51.252;9.830;2023-07-31T01:32:59;17.80;99.90
44833;DHT22;30569;51.252;9.830;2023-07-31T01:35:27;17.80;99.90
44833;DHT22;30569;51.252;9.830;2023-07-31T01:37:53;17.80;99.90
44833;DHT22;30569;51.252;9.830;2023-07-31T01:40:19;17.80;99.90
44833;DHT22;30569;51.252;9.830;2023-07-31T01:42:45;17.80;99.90
44833;DHT22;30569;51.252;9.830;2023-07-31T01:45:10;17.60;99.90
44833;DHT22;30569;51.252;9.830;2023-07-31T01:47:36;17.60;99.90
44833;DHT22;30569;51.252;9.830;2023-07-31T01:50:02;17.60;99.90
44833;DHT22;30569;51.252;9.830;2023-07-31T01:52:27;17.50;99.90
44833;DHT22;30569;51.252;9.830;2023-07-31T01:54:53;17.40;99.90
44833;DHT22;30569;51.252;9.830;2023-07-31T01:57:19;17.50;99.90
44833;DHT22;30569;51.252;9.830;2023-07-31T01:59:44;17.50;99.90
44833;DHT22;30569;51.252;9.830;2023-07-31T02:02:10;17.50;99.90
44833;DHT22;30569;51.252;9.830;2023-07-31T02:04:36;17.40;99.90
44833;DHT22;30569;51.252;9.830;2023-07-31T02:07:01;17.50;99.90
44833;DHT22;30569;51.252;9.830;2023-07-31T02:09:27;17.40;99.90
44833;DHT22;30569;51.252;9.830;2023-07-31T02:11:52;17.40;99.90
44833;DHT22;30569;51.252;9.830;2023-07-31T02:14:18;17.50;99.90
44833;DHT22;30569;51.252;9.830;2023-07-31T02:16:43;17.50;99.90
44833;DHT22;30569;51.252;9.830;2023-07-31T02:19:09;17.60;99.90
44833;DHT22;30569;51.252;9.830;2023-07-31T02:21:34;17.70;99.90
44833;DHT22;30569;51.252;9.830;2023-07-31T02:24:00;17.60;99.90
44833;DHT22;30569;51.252;9.830;2023-07-31T02:26:25;17.60;99.90
44833;DHT22;30569;51.252;9.830;2023-07-31T02:28:51;17.70;99.90
44833;DHT22;30569;51.252;9.830;2023-07-31T02:31:16;17.70;99.90
44833;DHT22;30569;51.252;9.830;2023-07-31T02:33:42;17.70;99.90
44833;DHT22;30569;51.252;9.830;2023-07-31T02:36:07;17.60;99.90
44833;DHT22;30569;51.252;9.830;2023-07-31T02:38:33;17.70;99.90
44833;DHT22;30569;51.252;9.830;2023-07-31T02:40:58;17.60;99.90
44833;DHT22;30569;51.252;9.830;2023-07-31T02:43:24;17.60;99.90
44833;DHT22;30569;51.252;9.830;2023-07-31T02:45:52;17.60;99.90
44833;DHT22;30569;51.252;9.830;2023-07-31T02:48:18;17.50;99.90
44833;DHT22;30569;51.252;9.830;2023-07-31T02:50:45;17.40;99.90
44833;DHT22;30569;51.252;9.830;2023-07-31T02:53:10;17.40;99.90
44833;DHT22;30569;51.252;9.830;2023-07-31T02:55:36;17.50;99.90
44833;DHT22;30569;51.252;9.830;2023-07-31T02:58:01;17.50;99.90
44833;DHT22;30569;51.252;9.830;2023-07-31T03:00:27;17.50;99.90
44833;DHT22;30569;51.252;9.830;2023-07-31T03:02:53;17.40;99.90
44833;DHT22;30569;51.252;9.830;2023-07-31T03:05:18;17.20;99.90
44833;DHT22;30569;51.252;9.830;2023-07-31T03:07:44;17.20;99.90
44833;DHT22;30569;51.252;9.830;2023-07-31T03:10:09;17.20;99.90
44833;DHT22;30569;51.252;9.830;2023-07-31T03:12:35;17.20;99.90
44833;DHT22;30569;51.252;9.830;2023-07-31T03:15:01;17.20;99.90
44833;DHT22;30569;51.252;9.830;2023-07-31T03:17:26;17.20;99.90
44833;DHT22;30569;51.252;9.830;2023-07-31T03:19:52;17.20;99.90
44833;DHT22;30569;51.252;9.830;2023-07-31T03:22:17;17.30;99.90
44833;DHT22;30569;51.252;9.830;2023-07-31T03:24:43;17.20;99.90
44833;DHT22;30569;51.252;9.830;2023-07-31T03:27:08;17.30;99.90
44833;DHT22;30569;51.252;9.830;2023-07-31T03:29:34;17.30;99.90
44833;DHT22;30569;51.252;9.830;2023-07-31T03:31:59;17.30;99.90
44833;DHT22;30569;51.252;9.830;2023-07-31T03:34:25;17.40;99.90
44833;DHT22;30569;51.252;9.830;2023-07-31T03:36:50;17.40;99.90
44833;DHT22;30569;51.252;9.830;2023-07-31T03:39:16;17.20;99.90
44833;DHT22;30569;51.252;9.830;2023-07-31T03:41:41;17.10;99.90
44833;DHT22;30569;51.252;9.830;2023-07-31T03:44:07;17.60;99.90
44833;DHT22;30569;51.252;9.830;2023-07-31T03:46:33;17.20;99.90
44833;DHT22;30569;51.252;9.830;2023-07-31T03:48:59;17.30;99.90
44833;DHT22;30569;51.252;9.830;2023-07-31T03:51:24;17.30;99.90
44833;DHT22;30569;51.252;9.830;2023-07-31T03:53:50;17.30;99.90
44833;DHT22;30569;51.252;9.830;2023-07-31T03:56:15;17.20;99.90
44833;DHT22;30569;51.252;9.830;2023-07-31T03:58:41;17.10;99.90
44833;DHT22;30569;51.252;9.830;2023-07-31T04:01:07;17.20;99.90
44833;DHT22;30569;51.252;9.830;2023-07-31T04:03:32;17.20;99.90
44833;DHT22;30569;51.252;9.830;2023-07-31T04:05:58;17.30;99.90
44833;DHT22;30569;51.252;9.830;2023-07-31T04:08:24;17.30;99.90
44833;DHT22;30569;51.252;9.830;2023-07-31T04:10:49;17.00;99.90
44833;DHT22;30569;51.252;9.830;2023-07-31T04:13:15;17.00;99.90
44833;DHT22;30569;51.252;9.830;2023-07-31T04:15:41;17.10;99.90
44833;DHT22;30569;51.252;9.830;2023-07-31T04:18:06;17.10;99.90
44833;DHT22;30569;51.252;9.830;2023-07-31T04:20:32;17.30;99.90
44833;DHT22;30569;51.252;9.830;2023-07-31T04:22:58;17.30;99.90
44833;DHT22;30569;51.252;9.830;2023-07-31T04:25:23;17.10;99.90
44833;DHT22;30569;51.252;9.830;2023-07-31T04:27:49;17.10;99.90
44833;DHT22;30569;51.252;9.830;2023-07-31T04:30:15;17.10;99.90
44833;DHT22;30569;51.252;9.830;2023-07-31T04:32:40;17.10;99.90
44833;DHT22;30569;51.252;9.830;2023-07-31T04:35:06;17.20;99.90
44833;DHT22;30569;51.252;9.830;2023-07-31T04:37:32;17.20;99.90
44833;DHT22;30569;51.252;9.830;2023-07-31T04:39:57;17.20;99.90
44833;DHT22;30569;51.252;9.830;2023-07-31T04:42:23;17.20;99.90
44833;DHT22;30569;51.252;9.830;2023-07-31T04:44:48;17.30;99.90
44833;DHT22;30569;51.252;9.830;2023-07-31T04:47:14;17.30;99.90
44833;DHT22;30569;51.252;9.830;2023-07-31T04:49:39;17.10;99.90
44833;DHT22;30569;51.252;9.830;2023-07-31T04:52:05;17.30;99.90
44833;DHT22;30569;51.252;9.830;2023-07-31T04:54:31;17.40;99.90
44833;DHT22;30569;51.252;9.830;2023-07-31T04:56:56;17.50;99.90
44833;DHT22;30569;51.252;9.830;2023-07-31T04:59:22;17.50;99.90
44833;DHT22;30569;51.252;9.830;2023-07-31T05:01:47;17.30;99.90
44833;DHT22;30569;51.252;9.830;2023-07-31T05:04:14;17.40;99.90
44833;DHT22;30569;51.252;9.830;2023-07-31T05:06:40;17.40;99.90
44833;DHT22;30569;51.252;9.830;2023-07-31T05:09:06;17.40;99.90
44833;DHT22;30569;51.252;9.830;2023-07-31T05:11:31;17.60;99.90
44833;DHT22;30569;51.252;9.830;2023-07-31T05:13:57;17.70;99.90
44833;DHT22;30569;51.252;9.830;2023-07-31T05:16:22;17.60;99.90
44833;DHT22;30569;51.252;9.830;2023-07-31T05:18:48;17.40;99.90
44833;DHT22;30569;51.252;9.830;2023-07-31T05:21:14;17.40;99.90
44833;DHT22;30569;51.252;9.830;2023-07-31T05:23:39;17.40;99.90
44833;DHT22;30569;51.252;9.830;2023-07-31T05:26:06;17.60;99.90
44833;DHT22;30569;51.252;9.830;2023-07-31T05:28:33;17.70;99.90
44833;DHT22;30569;51.252;9.830;2023-07-31T05:31:00;17.80;99.90
44833;DHT22;30569;51.252;9.830;2023-07-31T05:33:25;17.80;99.90
44833;DHT22;30569;51.252;9.830;2023-07-31T05:35:51;17.90;99.90
44833;DHT22;30569;51.252;9.830;2023-07-31T05:38:16;18.00;99.90
44833;DHT22;30569;51.252;9.830;2023-07-31T05:40:43;18.00;99.90
44833;DHT22;30569;51.252;9.830;2023-07-31T05:43:08;17.90;99.90
44833;DHT22;30569;51.252;9.830;2023-07-31T05:45:34;17.50;99.90
44833;DHT22;30569;51.252;9.830;2023-07-31T05:48:00;17.70;99.90
44833;DHT22;30569;51.252;9.830;2023-07-31T05:50:26;17.80;99.90
44833;DHT22;30569;51.252;9.830;2023-07-31T05:52:51;17.70;99.90
44833;DHT22;30569;51.252;9.830;2023-07-31T05:55:17;17.50;99.90
44833;DHT22;30569;51.252;9.830;2023-07-31T05:57:43;17.20;99.90
44833;DHT22;30569;51.252;9.830;2023-07-31T06:00:13;17.30;99.90
44833;DHT22;30569;51.252;9.830;2023-07-31T06:02:39;17.30;99.90
44833;DHT22;30569;51.252;9.830;2023-07-31T06:05:05;17.30;99.90
44833;DHT22;30569;51.252;9.830;2023-07-31T06:07:31;17.40;99.90
44833;DHT22;30569;51.252;9.830;2023-07-31T06:09:57;17.40;99.90
44833;DHT22;30569;51.252;9.830;2023-07-31T06:12:28;17.60;99.90
44833;DHT22;30569;51.252;9.830;2023-07-31T06:14:54;17.80;99.90
44833;DHT22;30569;51.252;9.830;2023-07-31T06:17:19;17.70;99.90
44833;DHT22;30569;51.252;9.830;2023-07-31T06:19:45;17.70;99.90
44833;DHT22;30569;51.252;9.830;2023-07-31T06:22:10;17.70;99.90
44833;DHT22;30569;51.252;9.830;2023-07-31T06:24:36;17.80;99.90
44833;DHT22;30569;51.252;9.830;2023-07-31T06:27:01;17.90;99.90
44833;DHT22;30569;51.252;9.830;2023-07-31T06:29:29;17.80;99.90
44833;DHT22;30569;51.252;9.830;2023-07-31T06:31:55;17.90;99.90
44833;DHT22;30569;51.252;9.830;2023-07-31T06:34:20;17.90;99.90
44833;DHT22;30569;51.252;9.830;2023-07-31T06:36:46;18.00;99.90
44833;DHT22;30569;51.252;9.830;2023-07-31T06:39:12;18.10;99.90
44833;DHT22;30569;51.252;9.830;2023-07-31T06:41:38;18.10;99.90
44833;DHT22;30569;51.252;9.830;2023-07-31T06:44:03;17.90;99.90
44833;DHT22;30569;51.252;9.830;2023-07-31T06:46:29;18.00;99.90
44833;DHT22;30569;51.252;9.830;2023-07-31T06:48:54;18.10;99.90
44833;DHT22;30569;51.252;9.830;2023-07-31T06:51:20;17.90;99.90
44833;DHT22;30569;51.252;9.830;2023-07-31T06:53:46;17.50;99.90
44833;DHT22;30569;51.252;9.830;2023-07-31T06:56:12;17.60;99.90
44833;DHT22;30569;51.252;9.830;2023-07-31T06:58:37;17.80;99.90
44833;DHT22;30569;51.252;9.830;2023-07-31T07:01:03;18.10;99.90
44833;DHT22;30569;51.252;9.830;2023-07-31T07:03:29;18.20;99.90
44833;DHT22;30569;51.252;9.830;2023-07-31T07:05:54;18.30;99.90
44833;DHT22;30569;51.252;9.830;2023-07-31T07:08:20;18.20;99.90
44833;DHT22;30569;51.252;9.830;2023-07-31T07:10:46;18.00;99.90
44833;DHT22;30569;51.252;9.830;2023-07-31T07:13:12;17.90;99.90
44833;DHT22;30569;51.252;9.830;2023-07-31T07:15:38;18.00;99.90
44833;DHT22;30569;51.252;9.830;2023-07-31T07:18:04;18.00;99.90
44833;DHT22;30569;51.252;9.830;2023-07-31T07:20:29;18.20;99.90
44833;DHT22;30569;51.252;9.830;2023-07-31T07:22:55;18.30;99.90
44833;DHT22;30569;51.252;9.830;2023-07-31T07:25:21;18.20;99.90
44833;DHT22;30569;51.252;9.830;2023-07-31T07:27:46;18.20;99.90
44833;DHT22;30569;51.252;9.830;2023-07-31T07:30:12;18.50;99.90
44833;DHT22;30569;51.252;9.830;2023-07-31T07:32:39;18.50;99.90
44833;DHT22;30569;51.252;9.830;2023-07-31T07:35:05;18.70;99.90
44833;DHT22;30569;51.252;9.830;2023-07-31T07:37:31;18.80;99.90
44833;DHT22;30569;51.252;9.830;2023-07-31T07:39:57;18.90;99.90
44833;DHT22;30569;51.252;9.830;2023-07-31T07:42:22;18.90;99.90
44833;DHT22;30569;51.252;9.830;2023-07-31T07:44:48;18.90;99.90
44833;DHT22;30569;51.252;9.830;2023-07-31T07:47:14;19.00;99.90
44833;DHT22;30569;51.252;9.830;2023-07-31T07:49:39;18.80;99.90
44833;DHT22;30569;51.252;9.830;2023-07-31T07:52:05;18.80;99.90
44833;DHT22;30569;51.252;9.830;2023-07-31T07:54:31;18.80;99.90
44833;DHT22;30569;51.252;9.830;2023-07-31T07:56:56;18.70;99.90
44833;DHT22;30569;51.252;9.830;2023-07-31T07:59:22;18.70;99.90
44833;DHT22;30569;51.252;9.830;2023-07-31T08:01:47;18.90;99.90
44833;DHT22;30569;51.252;9.830;2023-07-31T08:04:13;19.00;99.90
44833;DHT22;30569;51.252;9.830;2023-07-31T08:06:39;18.80;99.90
44833;DHT22;30569;51.252;9.830;2023-07-31T08:09:05;18.80;99.90
44833;DHT22;30569;51.252;9.830;2023-07-31T08:11:32;18.90;99.90
44833;DHT22;30569;51.252;9.830;2023-07-31T08:13:58;19.00;99.90
44833;DHT22;30569;51.252;9.830;2023-07-31T08:16:23;19.20;99.90
44833;DHT22;30569;51.252;9.830;2023-07-31T08:18:49;19.20;99.90
44833;DHT22;30569;51.252;9.830;2023-07-31T08:21:15;19.30;99.90
44833;DHT22;30569;51.252;9.830;2023-07-31T08:23:40;19.30;99.90
44833;DHT22;30569;51.252;9.830;2023-07-31T08:26:06;19.40;99.90
44833;DHT22;30569;51.252;9.830;2023-07-31T08:28:32;19.40;99.90
44833;DHT22;30569;51.252;9.830;2023-07-31T08:30:58;19.50;99.90
44833;DHT22;30569;51.252;9.830;2023-07-31T08:33:23;19.60;99.90
44833;DHT22;30569;51.252;9.830;2023-07-31T08:35:49;19.50;99.90
44833;DHT22;30569;51.252;9.830;2023-07-31T08:38:14;19.50;99.90
44833;DHT22;30569;51.252;9.830;2023-07-31T08:40:40;19.60;99.90
44833;DHT22;30569;51.252;9.830;2023-07-31T08:43:08;19.60;99.90
44833;DHT22;30569;51.252;9.830;2023-07-31T08:45:34;19.70;99.90
44833;DHT22;30569;51.252;9.830;2023-07-31T08:47:59;19.50;99.90
44833;DHT22;30569;51.252;9.830;2023-07-31T08:50:25;19.50;99.90
44833;DHT22;30569;51.252;9.830;2023-07-31T08:52:51;19.50;99.90
44833;DHT22;30569;51.252;9.830;2023-07-31T08:55:17;19.30;99.90
44833;DHT22;30569;51.252;9.830;2023-07-31T08:57:49;19.40;99.90
44833;DHT22;30569;51.252;9.830;2023-07-31T09:00:15;19.40;99.90
44833;DHT22;30569;51.252;9.830;2023-07-31T09:02:46;19.30;99.90
44833;DHT22;30569;51.252;9.830;2023-07-31T09:05:13;19.30;99.90
44833;DHT22;30569;51.252;9.830;2023-07-31T09:07:40;18.90;99.90
44833;DHT22;30569;51.252;9.830;2023-07-31T09:10:11;19.00;99.90
44833;DHT22;30569;51.252;9.830;2023-07-31T09:12:37;18.90;99.90
44833;DHT22;30569;51.252;9.830;2023-07-31T09:15:04;18.90;99.90
44833;DHT22;30569;51.252;9.830;2023-07-31T09:17:35;19.10;99.90
44833;DHT22;30569;51.252;9.830;2023-07-31T09:20:17;19.30;99.90
44833;DHT22;30569;51.252;9.830;2023-07-31T09:22:44;19.30;99.90
44833;DHT22;30569;51.252;9.830;2023-07-31T09:25:24;19.40;99.90
44833;DHT22;30569;51.252;9.830;2023-07-31T09:30:17;18.90;99.90
44833;DHT22;30569;51.252;9.830;2023-07-31T09:32:44;18.90;99.90
44833;DHT22;30569;51.252;9.830;2023-07-31T09:37:50;19.00;99.90
44833;DHT22;30569;51.252;9.830;2023-07-31T09:40:30;18.90;99.90
44833;DHT22;30569;51.252;9.830;2023-07-31T09:43:00;18.80;99.90
44833;DHT22;30569;51.252;9.830;2023-07-31T09:45:26;18.90;99.90
44833;DHT22;30569;51.252;9.830;2023-07-31T09:47:52;19.10;99.90
44833;DHT22;30569;51.252;9.830;2023-07-31T09:50:22;19.20;99.90
44833;DHT22;30569;51.252;9.830;2023-07-31T09:52:48;19.20;99.90
44833;DHT22;30569;51.252;9.830;2023-07-31T09:55:14;19.20;99.90
44833;DHT22;30569;51.252;9.830;2023-07-31T09:57:41;19.20;99.90
44833;DHT22;30569;51.252;9.830;2023-07-31T10:00:09;18.90;99.90
44833;DHT22;30569;51.252;9.830;2023-07-31T10:02:36;18.90;99.90
44833;DHT22;30569;51.252;9.830;2023-07-31T10:05:03;19.00;99.90
44833;DHT22;30569;51.252;9.830;2023-07-31T10:07:30;19.00;99.90
44833;DHT22;30569;51.252;9.830;2023-07-31T10:09:58;19.00;99.90
44833;DHT22;30569;51.252;9.830;2023-07-31T10:12:27;18.80;99.90
44833;DHT22;30569;51.252;9.830;2023-07-31T10:14:55;18.70;99.90
44833;DHT22;30569;51.252;9.830;2023-07-31T10:17:22;18.90;99.90
44833;DHT22;30569;51.252;9.830;2023-07-31T10:19:49;19.10;99.90
44833;DHT22;30569;51.252;9.830;2023-07-31T10:22:15;19.50;99.90
44833;DHT22;30569;51.252;9.830;2023-07-31T10:24:46;19.80;99.90
44833;DHT22;30569;51.252;9.830;2023-07-31T10:27:11;19.40;99.90
44833;DHT22;30569;51.252;9.830;2023-07-31T10:29:38;19.80;99.90
44833;DHT22;30569;51.252;9.830;2023-07-31T10:32:06;20.20;99.90
44833;DHT22;30569;51.252;9.830;2023-07-31T10:34:35;20.40;99.90
44833;DHT22;30569;51.252;9.830;2023-07-31T10:37:27;20.50;99.90
44833;DHT22;30569;51.252;9.830;2023-07-31T10:40:02;20.70;99.90
44833;DHT22;30569;51.252;9.830;2023-07-31T10:42:31;21.10;99.90
44833;DHT22;30569;51.252;9.830;2023-07-31T10:44:58;21.40;99.90
44833;DHT22;30569;51.252;9.830;2023-07-31T10:47:24;22.00;99.90
44833;DHT22;30569;51.252;9.830;2023-07-31T10:49:50;22.40;99.90
44833;DHT22;30569;51.252;9.830;2023-07-31T10:52:20;22.30;99.90
44833;DHT22;30569;51.252;9.830;2023-07-31T10:57:49;21.90;99.90
44833;DHT22;30569;51.252;9.830;2023-07-31T11:00:27;21.50;99.90
44833;DHT22;30569;51.252;9.830;2023-07-31T11:03:00;21.50;99.90
44833;DHT22;30569;51.252;9.830;2023-07-31T11:05:40;21.20;99.90
44833;DHT22;30569;51.252;9.830;2023-07-31T11:08:20;21.60;99.90
44833;DHT22;30569;51.252;9.830;2023-07-31T11:10:47;21.00;99.90
44833;DHT22;30569;51.252;9.830;2023-07-31T11:13:13;21.00;99.90
44833;DHT22;30569;51.252;9.830;2023-07-31T11:15:39;21.00;99.90
44833;DHT22;30569;51.252;9.830;2023-07-31T11:18:05;20.80;99.90
44833;DHT22;30569;51.252;9.830;2023-07-31T11:20:35;20.60;99.90
44833;DHT22;30569;51.252;9.830;2023-07-31T11:23:02;20.70;99.90
44833;DHT22;30569;51.252;9.830;2023-07-31T11:25:29;20.50;99.90
44833;DHT22;30569;51.252;9.830;2023-07-31T11:27:55;20.30;99.90
44833;DHT22;30569;51.252;9.830;2023-07-31T11:30:21;19.90;99.90
44833;DHT22;30569;51.252;9.830;2023-07-31T11:32:47;19.90;99.90
44833;DHT22;30569;51.252;9.830;2023-07-31T11:35:13;20.00;99.90
44833;DHT22;30569;51.252;9.830;2023-07-31T11:37:40;19.70;99.90
44833;DHT22;30569;51.252;9.830;2023-07-31T11:40:06;19.70;99.90
44833;DHT22;30569;51.252;9.830;2023-07-31T11:42:32;19.90;99.90
44833;DHT22;30569;51.252;9.830;2023-07-31T11:44:57;19.90;99.90
44833;DHT22;30569;51.252;9.830;2023-07-31T11:47:25;20.00;99.90
44833;DHT22;30569;51.252;9.830;2023-07-31T11:49:51;20.50;99.90
44833;DHT22;30569;51.252;9.830;2023-07-31T11:52:18;20.70;99.90
44833;DHT22;30569;51.252;9.830;2023-07-31T11:54:46;20.80;99.80
44833;DHT22;30569;51.252;9.830;2023-07-31T11:57:12;20.80;99.80
44833;DHT22;30569;51.252;9.830;2023-07-31T11:59:38;21.10;98.50
44833;DHT22;30569;51.252;9.830;2023-07-31T12:02:05;21.00;99.30
44833;DHT22;30569;51.252;9.830;2023-07-31T12:04:31;21.10;98.90
44833;DHT22;30569;51.252;9.830;2023-07-31T12:06:56;21.00;98.90
44833;DHT22;30569;51.252;9.830;2023-07-31T12:09:22;20.90;98.60
44833;DHT22;30569;51.252;9.830;2023-07-31T12:11:48;20.70;99.90
44833;DHT22;30569;51.252;9.830;2023-07-31T12:14:25;20.90;99.80
44833;DHT22;30569;51.252;9.830;2023-07-31T12:16:55;20.00;99.90
44833;DHT22;30569;51.252;9.830;2023-07-31T12:19:21;19.80;99.90
44833;DHT22;30569;51.252;9.830;2023-07-31T12:21:47;20.10;99.90
44833;DHT22;30569;51.252;9.830;2023-07-31T12:24:13;20.10;99.90
44833;DHT22;30569;51.252;9.830;2023-07-31T12:26:38;20.00;99.90
44833;DHT22;30569;51.252;9.830;2023-07-31T12:29:07;20.00;99.90
44833;DHT22;30569;51.252;9.830;2023-07-31T12:31:33;19.80;99.90
44833;DHT22;30569;51.252;9.830;2023-07-31T12:33:59;19.80;99.90
44833;DHT22;30569;51.252;9.830;2023-07-31T12:36:25;21.20;99.90
44833;DHT22;30569;51.252;9.830;2023-07-31T12:38:51;19.70;99.90
44833;DHT22;30569;51.252;9.830;2023-07-31T12:41:17;19.70;99.90
44833;DHT22;30569;51.252;9.830;2023-07-31T12:43:44;19.80;99.90
44833;DHT22;30569;51.252;9.830;2023-07-31T12:46:10;20.00;99.90
44833;DHT22;30569;51.252;9.830;2023-07-31T12:48:37;20.00;99.90
44833;DHT22;30569;51.252;9.830;2023-07-31T12:51:03;20.20;99.90
44833;DHT22;30569;51.252;9.830;2023-07-31T12:53:29;20.00;99.90
44833;DHT22;30569;51.252;9.830;2023-07-31T12:55:57;20.10;99.90
44833;DHT22;30569;51.252;9.830;2023-07-31T12:58:23;20.10;99.90
44833;DHT22;30569;51.252;9.830;2023-07-31T13:00:49;20.10;99.90
44833;DHT22;30569;51.252;9.830;2023-07-31T13:03:15;20.10;99.90
44833;DHT22;30569;51.252;9.830;2023-07-31T13:05:40;20.00;99.90
44833;DHT22;30569;51.252;9.830;2023-07-31T13:08:06;20.20;99.90
44833;DHT22;30569;51.252;9.830;2023-07-31T13:10:31;20.20;99.90
44833;DHT22;30569;51.252;9.830;2023-07-31T13:12:57;20.20;99.90
44833;DHT22;30569;51.252;9.830;2023-07-31T13:15:23;20.20;99.90
44833;DHT22;30569;51.252;9.830;2023-07-31T13:17:48;20.30;99.90
44833;DHT22;30569;51.252;9.830;2023-07-31T13:20:14;20.30;99.90
44833;DHT22;30569;51.252;9.830;2023-07-31T13:22:40;20.30;99.90
44833;DHT22;30569;51.252;9.830;2023-07-31T13:25:06;20.70;99.90
44833;DHT22;30569;51.252;9.830;2023-07-31T13:27:31;20.60;99.90
44833;DHT22;30569;51.252;9.830;2023-07-31T13:29:57;20.70;99.80
44833;DHT22;30569;51.252;9.830;2023-07-31T13:32:22;20.80;99.20
44833;DHT22;30569;51.252;9.830;2023-07-31T13:34:48;21.00;99.90
44833;DHT22;30569;51.252;9.830;2023-07-31T13:37:14;20.80;99.60
44833;DHT22;30569;51.252;9.830;2023-07-31T13:39:40;20.90;99.70
44833;DHT22;30569;51.252;9.830;2023-07-31T13:42:07;20.90;98.80
44833;DHT22;30569;51.252;9.830;2023-07-31T13:44:36;21.00;99.20
44833;DHT22;30569;51.252;9.830;2023-07-31T13:47:02;21.10;98.70
44833;DHT22;30569;51.252;9.830;2023-07-31T13:49:28;21.20;98.70
44833;DHT22;30569;51.252;9.830;2023-07-31T13:51:54;21.20;98.50
44833;DHT22;30569;51.252;9.830;2023-07-31T13:54:20;21.30;98.50
44833;DHT22;30569;51.252;9.830;2023-07-31T13:56:45;21.60;98.60
44833;DHT22;30569;51.252;9.830;2023-07-31T13:59:11;21.50;98.50
44833;DHT22;30569;51.252;9.830;2023-07-31T14:01:37;21.30;98.20
44833;DHT22;30569;51.252;9.830;2023-07-31T14:04:03;21.50;99.00
44833;DHT22;30569;51.252;9.830;2023-07-31T14:06:28;21.50;97.90
44833;DHT22;30569;51.252;9.830;2023-07-31T14:08:54;21.50;98.20
44833;DHT22;30569;51.252;9.830;2023-07-31T14:11:21;21.50;97.80
44833;DHT22;30569;51.252;9.830;2023-07-31T14:13:47;21.40;97.80
44833;DHT22;30569;51.252;9.830;2023-07-31T14:16:12;21.50;97.80
44833;DHT22;30569;51.252;9.830;2023-07-31T14:18:38;21.50;98.20
44833;DHT22;30569;51.252;9.830;2023-07-31T14:21:03;21.30;97.30
44833;DHT22;30569;51.252;9.830;2023-07-31T14:23:29;21.30;97.90
44833;DHT22;30569;51.252;9.830;2023-07-31T14:25:54;21.30;97.90
44833;DHT22;30569;51.252;9.830;2023-07-31T14:28:20;21.10;98.00
44833;DHT22;30569;51.252;9.830;2023-07-31T14:30:45;20.70;99.10
44833;DHT22;30569;51.252;9.830;2023-07-31T14:33:11;20.70;99.50
44833;DHT22;30569;51.252;9.830;2023-07-31T14:35:36;20.70;99.30
44833;DHT22;30569;51.252;9.830;2023-07-31T14:38:02;20.80;99.30
44833;DHT22;30569;51.252;9.830;2023-07-31T14:40:27;20.60;99.80
44833;DHT22;30569;51.252;9.830;2023-07-31T14:42:53;20.70;99.90
44833;DHT22;30569;51.252;9.830;2023-07-31T14:45:19;20.50;99.90
44833;DHT22;30569;51.252;9.830;2023-07-31T14:47:44;20.50;99.90
44833;DHT22;30569;51.252;9.830;2023-07-31T14:50:10;20.40;99.90
44833;DHT22;30569;51.252;9.830;2023-07-31T14:52:36;20.40;99.90
44833;DHT22;30569;51.252;9.830;2023-07-31T14:55:01;20.10;99.90
44833;DHT22;30569;51.252;9.830;2023-07-31T14:57:27;20.30;99.90
44833;DHT22;30569;51.252;9.830;2023-07-31T14:59:53;20.20;99.90
44833;DHT22;30569;51.252;9.830;2023-07-31T15:02:18;20.20;99.90
44833;DHT22;30569;51.252;9.830;2023-07-31T15:04:44;20.30;99.90
44833;DHT22;30569;51.252;9.830;2023-07-31T15:07:09;20.30;99.90
44833;DHT22;30569;51.252;9.830;2023-07-31T15:09:35;20.40;99.90
44833;DHT22;30569;51.252;9.830;2023-07-31T15:12:01;20.40;99.90
44833;DHT22;30569;51.252;9.830;2023-07-31T15:14:26;20.40;99.90
44833;DHT22;30569;51.252;9.830;2023-07-31T15:16:53;20.60;99.90
44833;DHT22;30569;51.252;9.830;2023-07-31T15:19:18;20.70;99.90
44833;DHT22;30569;51.252;9.830;2023-07-31T15:21:44;20.60;99.90
44833;DHT22;30569;51.252;9.830;2023-07-31T15:24:09;20.70;99.90
44833;DHT22;30569;51.252;9.830;2023-07-31T15:26:37;21.00;99.90
44833;DHT22;30569;51.252;9.830;2023-07-31T15:29:04;21.00;99.90
44833;DHT22;30569;51.252;9.830;2023-07-31T15:31:43;21.00;99.40
44833;DHT22;30569;51.252;9.830;2023-07-31T15:34:08;21.00;99.40
44833;DHT22;30569;51.252;9.830;2023-07-31T15:36:34;21.00;99.50
44833;DHT22;30569;51.252;9.830;2023-07-31T15:38:59;21.00;99.20
44833;DHT22;30569;51.252;9.830;2023-07-31T15:41:25;21.10;98.90